Time;durP1;ratioP1;P1;durP2;ratioP2;P2;SDS_P1;SDS_P2;PMS_P1;PMS_P2;Temp;Humidity;BMP_temperature;BMP_pressure;BME280_temperature;BME280_humidity;BME280_pressure;Samples;Min_cycle;Max_cycle;Signal;HPM_P1;HPM_P2
2022/09/27 00:02:08;;;;;;;;;;;;;;;10.60;100.00;99659.00;5112005;28;20017;-37
2022/09/27 00:04:36;;;;;;;;;;;;;;;10.60;100.00;99656.22;5111672;28;19973;-38
2022/09/27 00:07:04;;;;;;;;;;;;;;;10.63;100.00;99663.94;5112345;28;20386;-38
2022/09/27 00:09:32;;;;;;;;;;;;;;;10.67;100.00;99664.91;5112117;28;20296;-41
2022/09/27 00:11:59;;;;;;;;;;;;;;;10.69;100.00;99667.38;5111568;28;19928;-33
2022/09/27 00:14:27;;;;;;;;;;;;;;;10.65;100.00;99666.41;5111656;28;19981;-39
2022/09/27 00:16:56;;;;;;;;;;;;;;;10.67;100.00;99664.09;5112460;28;19931;-38
2022/09/27 00:19:24;;;;;;;;;;;;;;;10.73;100.00;99673.97;5111171;28;20376;-40
2022/09/27 00:21:52;;;;;;;;;;;;;;;10.78;100.00;99664.59;5112169;28;19923;-39
2022/09/27 00:24:20;;;;;;;;;;;;;;;10.81;100.00;99667.53;5093904;28;19973;-36
2022/09/27 00:26:49;;;;;;;;;;;;;;;10.86;100.00;99669.34;5111242;28;20261;-35
2022/09/27 00:29:17;;;;;;;;;;;;;;;10.88;100.00;99675.41;5111988;28;19931;-42
2022/09/27 00:31:45;;;;;;;;;;;;;;;10.89;100.00;99677.06;5112277;28;19928;-38
2022/09/27 00:34:17;;;;;;;;;;;;;;;10.84;100.00;99672.44;5111008;28;20376;-41
2022/09/27 00:36:45;;;;;;;;;;;;;;;10.82;100.00;99671.97;5093597;28;19976;-39
2022/09/27 00:39:13;;;;;;;;;;;;;;;10.82;100.00;99671.13;5111040;28;20300;-36
2022/09/27 00:41:41;;;;;;;;;;;;;;;10.84;100.00;99672.44;5111851;28;19928;-37
2022/09/27 00:44:23;;;;;;;;;;;;;;;10.88;100.00;99672.63;5093488;28;19932;-39
2022/09/27 00:46:56;;;;;;;;;;;;;;;10.95;100.00;99684.94;5110617;28;19928;-42
2022/09/27 00:49:28;;;;;;;;;;;;;;;11.00;100.00;99686.72;5115282;28;19924;-37
2022/09/27 00:51:58;;;;;;;;;;;;;;;10.97;100.00;99677.06;5116001;28;20397;-41
2022/09/27 00:54:26;;;;;;;;;;;;;;;10.92;100.00;99671.63;5096775;28;20303;-40
2022/09/27 00:56:55;;;;;;;;;;;;;;;10.89;100.00;99675.09;5116028;28;20384;-36
2022/09/27 00:59:26;;;;;;;;;;;;;;;10.87;100.00;99679.34;5115723;28;20396;-37
2022/09/27 01:01:54;;;;;;;;;;;;;;;10.85;100.00;99670.47;5115262;28;19931;-36
2022/09/27 01:04:24;;;;;;;;;;;;;;;10.83;100.00;99672.78;5097457;28;19938;-36
2022/09/27 01:06:53;;;;;;;;;;;;;;;10.83;100.00;99672.78;5115628;28;19927;-39
2022/09/27 01:09:22;;;;;;;;;;;;;;;10.85;100.00;99676.06;5115096;28;19935;-38
2022/09/27 01:11:54;;;;;;;;;;;;;;;10.87;100.00;99668.19;5115551;28;20022;-39
2022/09/27 01:14:28;;;;;;;;;;;;;;;10.90;100.00;99673.13;5115025;28;19954;-38
2022/09/27 01:17:00;;;;;;;;;;;;;;;10.89;100.00;99671.47;5094581;28;19928;-43
2022/09/27 01:19:45;;;;;;;;;;;;;;;10.90;100.00;99673.13;5097402;28;20257;-40
2022/09/27 01:22:18;;;;;;;;;;;;;;;10.91;100.00;99675.56;5094880;28;19935;-37
2022/09/27 01:24:55;;;;;;;;;;;;;;;10.91;100.00;99670.00;5097099;28;19955;-36
2022/09/27 01:27:42;;;;;;;;;;;;;;;10.89;100.00;99679.84;5096821;28;19923;-38
2022/09/27 01:30:22;;;;;;;;;;;;;;;10.86;100.00;99670.16;5114630;28;19934;-35
2022/09/27 01:32:57;;;;;;;;;;;;;;;10.88;100.00;99664.25;5086464;28;19972;-38
2022/09/27 01:35:29;;;;;;;;;;;;;;;10.91;100.00;99663.59;5096219;28;20388;-40
2022/09/27 01:38:02;;;;;;;;;;;;;;;10.91;100.00;99663.59;5103751;28;20326;-42
2022/09/27 01:40:33;;;;;;;;;;;;;;;10.91;100.00;99674.75;5096880;28;20117;-42
2022/09/27 01:43:29;;;;;;;;;;;;;;;10.88;100.00;99661.47;5081530;28;19928;-41
2022/09/27 01:46:02;;;;;;;;;;;;;;;10.87;100.00;99659.81;5096563;28;19931;-34
2022/09/27 01:48:54;;;;;;;;;;;;;;;10.87;100.00;99663.44;5076353;28;19927;-43
2022/09/27 01:51:25;;;;;;;;;;;;;;;10.90;100.00;99667.53;5095665;28;19939;-39
2022/09/27 01:53:56;;;;;;;;;;;;;;;10.90;100.00;99668.34;5096665;28;19935;-41
2022/09/27 01:56:47;;;;;;;;;;;;;;;10.90;100.00;99657.19;5113240;28;19932;-41
2022/09/27 01:59:24;;;;;;;;;;;;;;;10.89;100.00;99654.72;5096101;28;19923;-40
2022/09/27 02:02:04;;;;;;;;;;;;;;;10.88;100.00;99647.50;5096356;28;19923;-40
2022/09/27 02:04:53;;;;;;;;;;;;;;;10.85;100.00;99643.41;5113853;28;20026;-35
2022/09/27 02:07:23;;;;;;;;;;;;;;;10.83;100.00;99639.28;5096289;28;20326;-42
2022/09/27 02:09:56;;;;;;;;;;;;;;;10.78;100.00;99645.88;5096330;28;19931;-38
2022/09/27 02:12:34;;;;;;;;;;;;;;;10.75;100.00;99638.19;5094999;28;19927;-35
2022/09/27 02:15:05;;;;;;;;;;;;;;;10.76;100.00;99648.19;5096240;28;19927;-41
2022/09/27 02:17:42;;;;;;;;;;;;;;;10.77;100.00;99652.63;5095413;28;19935;-33
2022/09/27 02:20:14;;;;;;;;;;;;;;;10.78;100.00;99648.69;5096304;28;20273;-39
2022/09/27 02:22:51;;;;;;;;;;;;;;;10.79;100.00;99655.09;5095864;28;19924;-35
2022/09/27 02:25:20;;;;;;;;;;;;;;;10.78;100.00;99648.69;5113657;28;19950;-37
2022/09/27 02:27:52;;;;;;;;;;;;;;;10.79;100.00;99649.50;5095303;28;20429;-38
2022/09/27 02:30:21;;;;;;;;;;;;;;;10.78;100.00;99662.63;5095817;28;19923;-35
2022/09/27 02:32:56;;;;;;;;;;;;;;;10.81;100.00;99658.34;5094931;28;20419;-44
2022/09/27 02:35:25;;;;;;;;;;;;;;;10.82;100.00;99660.78;5095767;28;19924;-40
2022/09/27 02:37:53;;;;;;;;;;;;;;;10.82;100.00;99659.97;5095375;28;19923;-38
2022/09/27 02:40:21;;;;;;;;;;;;;;;10.78;100.00;99673.78;5113044;28;20066;-39
2022/09/27 02:42:49;;;;;;;;;;;;;;;10.76;100.00;99684.47;5095376;28;19924;-38
2022/09/27 02:45:18;;;;;;;;;;;;;;;10.75;100.00;99676.41;5095615;28;19946;-34
2022/09/27 02:47:54;;;;;;;;;;;;;;;10.68;100.00;99679.69;5094721;28;20291;-38
2022/09/27 02:50:37;;;;;;;;;;;;;;;10.62;100.00;99672.63;5075110;28;19928;-42
2022/09/27 02:53:32;;;;;;;;;;;;;;;10.57;100.00;99667.25;5100388;28;20016;-38
2022/09/27 02:56:10;;;;;;;;;;;;;;;10.53;100.00;99661.50;5095505;28;19932;-39
2022/09/27 02:59:18;;;;;;;;;;;;;;;10.50;100.00;99653.78;5095269;28;19940;-41
2022/09/27 03:02:04;;;;;;;;;;;;;;;10.49;100.00;99659.69;5113047;28;20345;-37
2022/09/27 03:04:53;;;;;;;;;;;;;;;10.47;100.00;99657.22;5095248;28;20338;-43
2022/09/27 03:07:22;;;;;;;;;;;;;;;10.44;100.00;99660.66;5074219;28;19932;-40
2022/09/27 03:09:51;;;;;;;;;;;;;;;10.43;100.00;99674.91;5090228;28;20048;-39
2022/09/27 03:12:24;;;;;;;;;;;;;;;10.45;100.00;99667.06;5094300;28;20380;-43
2022/09/27 03:14:52;;;;;;;;;;;;;;;10.48;100.00;99653.28;5110644;28;19931;-40
2022/09/27 03:17:43;;;;;;;;;;;;;;;10.50;100.00;99650.97;5090755;28;19932;-37
2022/09/27 03:20:28;;;;;;;;;;;;;;;10.49;100.00;99654.91;5109074;28;20308;-42
2022/09/27 03:23:10;;;;;;;;;;;;;;;10.42;100.00;99643.44;5111153;28;19931;-40
2022/09/27 03:25:37;;;;;;;;;;;;;;;10.35;100.00;99646.72;5110723;28;20338;-36
2022/09/27 03:28:05;;;;;;;;;;;;;;;10.32;100.00;99646.56;5110244;28;19928;-34
2022/09/27 03:30:34;;;;;;;;;;;;;;;10.28;100.00;99648.34;5093573;28;19962;-38
2022/09/27 03:33:02;;;;;;;;;;;;;;;10.23;100.00;99643.75;5094888;28;19924;-34
2022/09/27 03:35:48;;;;;;;;;;;;;;;10.21;100.00;99631.28;5112477;28;20283;-37
2022/09/27 03:38:18;;;;;;;;;;;;;;;10.17;100.00;99636.69;5113032;28;20449;-45
2022/09/27 03:40:46;;;;;;;;;;;;;;;10.14;100.00;99637.31;5094104;28;19947;-38
2022/09/27 03:43:14;;;;;;;;;;;;;;;10.14;100.00;99639.28;5093885;28;19928;-38
2022/09/27 03:45:46;;;;;;;;;;;;;;;10.18;100.00;99629.13;5094312;28;19966;-37
2022/09/27 03:48:14;;;;;;;;;;;;;;;10.21;100.00;99643.25;5112909;28;19928;-40
2022/09/27 03:50:41;;;;;;;;;;;;;;;10.17;100.00;99633.88;5111777;28;19946;-37
2022/09/27 03:53:09;;;;;;;;;;;;;;;10.12;100.00;99631.25;5094019;28;19928;-40
2022/09/27 03:55:38;;;;;;;;;;;;;;;10.09;100.00;99643.06;5094165;28;19928;-37
2022/09/27 03:58:05;;;;;;;;;;;;;;;10.09;100.00;99623.53;5111971;28;19924;-41
2022/09/27 04:00:36;;;;;;;;;;;;;;;10.13;100.00;99629.28;5093991;28;19946;-38
2022/09/27 04:03:04;;;;;;;;;;;;;;;10.18;100.00;99629.13;5093727;28;19953;-37
2022/09/27 04:05:51;;;;;;;;;;;;;;;10.24;100.00;99620.28;5112068;28;20030;-41
2022/09/27 04:08:22;;;;;;;;;;;;;;;10.28;100.00;99623.25;5094300;28;20392;-41
2022/09/27 04:10:51;;;;;;;;;;;;;;;10.32;100.00;99627.84;5093188;28;19928;-41
2022/09/27 04:13:19;;;;;;;;;;;;;;;10.38;100.00;99639.69;5112339;28;19923;-41
2022/09/27 04:15:53;;;;;;;;;;;;;;;10.46;100.00;99635.22;5093948;28;19928;-36
2022/09/27 04:18:39;;;;;;;;;;;;;;;10.50;100.00;99648.19;5103404;28;19934;-44
2022/09/27 04:21:26;;;;;;;;;;;;;;;10.53;100.00;99641.13;5111816;28;19958;-41
2022/09/27 04:23:55;;;;;;;;;;;;;;;10.54;100.00;99665.91;5093918;28;20006;-37
2022/09/27 04:26:25;;;;;;;;;;;;;;;10.56;100.00;99652.47;5092495;28;19930;-39
2022/09/27 04:29:00;;;;;;;;;;;;;;;10.51;100.00;99655.41;5094037;28;19959;-36
2022/09/27 04:31:28;;;;;;;;;;;;;;;10.43;100.00;99653.44;5093033;28;20415;-41
2022/09/27 04:34:08;;;;;;;;;;;;;;;10.35;100.00;99655.09;5111996;28;19931;-35
2022/09/27 04:36:35;;;;;;;;;;;;;;;10.29;100.00;99641.63;5093573;28;19951;-33
2022/09/27 04:39:08;;;;;;;;;;;;;;;10.26;100.00;99636.69;5092885;28;19928;-37
2022/09/27 04:41:40;;;;;;;;;;;;;;;10.26;100.00;99636.69;5093570;28;19931;-37
2022/09/27 04:44:08;;;;;;;;;;;;;;;10.23;100.00;99643.75;5093456;28;19930;-41
2022/09/27 04:46:35;;;;;;;;;;;;;;;10.24;100.00;99645.38;5092557;28;19938;-36
2022/09/27 04:49:03;;;;;;;;;;;;;;;10.25;100.00;99638.66;5093256;28;19931;-40
2022/09/27 04:51:34;;;;;;;;;;;;;;;10.22;100.00;99653.25;5093308;28;19933;-41
2022/09/27 04:54:03;;;;;;;;;;;;;;;10.17;100.00;99653.41;5107298;28;20454;-40
2022/09/27 04:56:34;;;;;;;;;;;;;;;10.12;100.00;99653.56;5093857;28;20365;-38
2022/09/27 04:59:05;;;;;;;;;;;;;;;10.09;100.00;99643.06;5093387;28;19930;-39
2022/09/27 05:01:38;;;;;;;;;;;;;;;10.09;100.00;99650.59;5093429;28;19924;-37
2022/09/27 05:04:17;;;;;;;;;;;;;;;10.10;100.00;99649.44;5093132;28;19976;-42
2022/09/27 05:06:48;;;;;;;;;;;;;;;10.12;100.00;99642.41;5092803;28;19973;-35
2022/09/27 05:09:28;;;;;;;;;;;;;;;10.13;100.00;99651.59;5093486;28;20368;-39
2022/09/27 05:11:56;;;;;;;;;;;;;;;10.16;100.00;99648.16;5112231;28;19924;-38
